createdAt,value
2018-02-06T00:02:00.884Z,79.61
2018-02-06T00:04:28.833Z,79.89
2018-02-06T00:06:56.424Z,79.88
2018-02-06T00:09:24.016Z,80.50
2018-02-06T00:11:51.625Z,79.90
2018-02-06T00:14:19.310Z,80.12
2018-02-06T00:16:46.955Z,79.70
2018-02-06T00:19:14.585Z,79.65
2018-02-06T00:21:42.179Z,79.35
2018-02-06T00:24:09.884Z,79.00
2018-02-06T00:26:38.357Z,78.46
2018-02-06T00:29:06.028Z,78.51
2018-02-06T00:31:33.611Z,80.01
2018-02-06T00:34:01.222Z,79.69
2018-02-06T00:36:30.835Z,79.91
2018-02-06T00:39:00.578Z,79.47
2018-02-06T00:41:28.253Z,79.83
2018-02-06T00:43:55.838Z,79.51
2018-02-06T00:46:23.489Z,79.62
2018-02-06T00:48:51.130Z,79.49
2018-02-06T00:51:18.713Z,78.92
2018-02-06T00:53:46.297Z,79.05
2018-02-06T00:56:13.884Z,79.14
2018-02-06T00:58:41.468Z,78.54
2018-02-06T01:01:09.094Z,78.08
2018-02-06T01:03:37.055Z,77.30
2018-02-06T01:06:04.647Z,75.84
2018-02-06T01:08:32.219Z,75.08
2018-02-06T01:10:59.809Z,74.37
2018-02-06T01:13:27.429Z,73.87
2018-02-06T01:15:55.018Z,74.42
2018-02-06T01:18:22.602Z,74.66
2018-02-06T01:20:50.243Z,75.12
2018-02-06T01:23:17.837Z,74.83
2018-02-06T01:25:45.432Z,74.03
2018-02-06T01:28:13.020Z,74.54
2018-02-06T01:30:41.008Z,74.63
2018-02-06T01:33:08.969Z,74.04
2018-02-06T01:35:36.808Z,73.11
2018-02-06T01:38:04.399Z,73.26
2018-02-06T01:40:32.258Z,72.81
2018-02-06T01:42:59.862Z,72.70
2018-02-06T01:45:27.474Z,73.04
2018-02-06T01:47:55.290Z,72.97
2018-02-06T01:50:22.878Z,72.49
2018-02-06T01:52:50.481Z,72.52
2018-02-06T01:55:18.104Z,73.58
2018-02-06T01:57:45.664Z,74.25
2018-02-06T02:00:13.348Z,74.69
2018-02-06T02:02:41.074Z,74.76
2018-02-06T02:05:11.823Z,75.01
2018-02-06T02:07:39.467Z,74.23
2018-02-06T02:10:07.078Z,73.89
2018-02-06T02:12:34.677Z,73.33
2018-02-06T02:15:02.268Z,73.48
2018-02-06T02:17:29.840Z,73.71
2018-02-06T02:19:57.469Z,73.85
2018-02-06T02:22:25.064Z,73.83
2018-02-06T02:24:52.621Z,74.13
2018-02-06T02:27:20.197Z,74.28
2018-02-06T02:29:47.793Z,74.16
2018-02-06T02:32:15.384Z,74.52
2018-02-06T02:34:42.937Z,74.74
2018-02-06T02:37:11.023Z,74.77
2018-02-06T02:39:38.930Z,75.04
2018-02-06T04:40:37.949Z,79.84
2018-02-06T04:43:05.725Z,80.30
2018-02-06T04:45:34.147Z,80.35
2018-02-06T04:48:01.849Z,80.59
2018-02-06T04:50:29.633Z,80.44
2018-02-06T04:52:57.259Z,80.77
2018-02-06T04:55:24.968Z,81.17
2018-02-06T04:57:52.558Z,80.76
2018-02-06T05:00:20.166Z,81.56
2018-02-06T05:02:47.752Z,81.01
2018-02-06T05:05:15.404Z,81.22
2018-02-06T05:07:43.003Z,81.35
2018-02-06T05:10:10.613Z,81.73
2018-02-06T05:12:38.153Z,81.61
2018-02-06T05:15:05.749Z,82.03
2018-02-06T05:17:33.366Z,82.01
2018-02-06T05:20:01.163Z,81.84
2018-02-06T05:22:28.732Z,81.71
2018-02-06T05:24:56.376Z,81.75
2018-02-06T05:27:23.948Z,82.26
2018-02-06T05:29:51.594Z,82.16
2018-02-06T05:32:19.209Z,82.41
2018-02-06T05:34:46.832Z,82.60
2018-02-06T05:37:14.406Z,82.99
2018-02-06T05:39:42.067Z,82.61
2018-02-06T05:42:09.639Z,83.55
2018-02-06T05:44:37.227Z,83.33
2018-02-06T05:47:04.827Z,83.48
2018-02-06T05:49:32.385Z,83.04
2018-02-06T05:51:59.968Z,82.92
2018-02-06T05:54:27.594Z,83.09
2018-02-06T05:56:55.165Z,83.20
2018-02-06T05:59:23.216Z,83.58
2018-02-06T06:01:50.796Z,83.61
2018-02-06T06:04:18.402Z,83.79
2018-02-06T06:06:46.000Z,83.68
2018-02-06T06:09:13.621Z,83.64
2018-02-06T06:11:41.204Z,83.71
2018-02-06T06:14:08.973Z,83.41
2018-02-06T06:16:36.632Z,83.38
2018-02-06T06:19:04.224Z,84.12
2018-02-06T06:21:32.824Z,84.17
2018-02-06T06:24:00.401Z,84.05
2018-02-06T06:26:27.998Z,83.96
2018-02-06T06:28:55.553Z,83.88
2018-02-06T06:31:23.217Z,83.90
2018-02-06T06:33:50.813Z,83.90
2018-02-06T06:36:18.776Z,84.13
2018-02-06T06:38:46.358Z,84.13
2018-02-06T06:41:13.940Z,83.55
2018-02-06T06:43:41.514Z,83.61
2018-02-06T06:46:09.194Z,83.33
2018-02-06T06:48:36.792Z,82.61
2018-02-06T06:51:04.442Z,82.47
2018-02-06T06:53:32.848Z,82.19
2018-02-06T06:56:00.451Z,82.47
2018-02-06T06:58:28.113Z,82.15
2018-02-06T07:00:55.705Z,81.75
2018-02-06T07:03:23.329Z,81.95
2018-02-06T07:05:50.999Z,81.82
2018-02-06T07:08:18.598Z,81.68
2018-02-06T07:10:46.272Z,82.43
2018-02-06T07:13:13.869Z,82.38
2018-02-06T07:15:41.459Z,82.40
2018-02-06T07:18:10.486Z,81.50
2018-02-06T07:20:38.097Z,80.84
2018-02-06T07:23:05.752Z,80.71
2018-02-06T07:25:33.371Z,80.90
2018-02-06T07:28:01.008Z,80.69
2018-02-06T07:30:28.530Z,80.71
2018-02-06T07:32:56.098Z,80.74
2018-02-06T07:35:23.705Z,80.73
2018-02-06T07:37:54.049Z,80.30
2018-02-06T07:40:21.640Z,78.95
2018-02-06T07:42:49.314Z,78.88
2018-02-06T07:45:16.896Z,79.51
2018-02-06T07:47:45.124Z,79.23
2018-02-06T07:50:12.743Z,79.45
2018-02-06T07:52:40.524Z,78.57
2018-02-06T07:55:08.083Z,78.52
2018-02-06T07:57:35.669Z,79.01
2018-02-06T08:00:03.355Z,79.07
2018-02-06T08:02:30.973Z,78.01
2018-02-06T08:04:58.609Z,77.98
2018-02-06T08:07:26.191Z,76.70
2018-02-06T08:09:53.854Z,76.69
2018-02-06T08:12:21.502Z,76.02
2018-02-06T08:14:49.085Z,75.66
2018-02-06T08:17:16.688Z,75.67
2018-02-06T08:19:44.250Z,75.86
2018-02-06T08:22:11.843Z,73.79
2018-02-06T08:24:39.450Z,74.04
2018-02-06T08:27:07.049Z,74.34
2018-02-06T08:29:34.639Z,73.69
2018-02-06T08:32:02.226Z,73.17
2018-02-06T08:34:29.899Z,72.80
2018-02-06T08:36:57.479Z,74.22
2018-02-06T08:39:25.091Z,73.33
2018-02-06T08:41:52.665Z,72.70
2018-02-06T08:44:20.867Z,72.42
2018-02-06T08:46:48.561Z,72.76
2018-02-06T08:49:16.127Z,70.84
2018-02-06T08:51:43.700Z,71.23
2018-02-06T08:54:11.330Z,71.32
2018-02-06T08:56:38.941Z,70.91
2018-02-06T08:59:06.553Z,71.62
2018-02-06T09:01:34.194Z,70.32
2018-02-06T09:04:01.775Z,70.41
2018-02-06T09:06:29.341Z,69.37
2018-02-06T09:08:56.933Z,70.18
2018-02-06T09:11:24.523Z,70.73
2018-02-06T09:13:52.158Z,68.95
2018-02-06T09:16:19.960Z,70.00
2018-02-06T09:18:47.559Z,69.49
2018-02-06T09:21:15.180Z,69.05
2018-02-06T09:23:42.725Z,67.99
2018-02-06T09:26:10.305Z,68.27
2018-02-06T09:28:37.910Z,68.06
2018-02-06T09:31:05.614Z,67.30
2018-02-06T09:33:33.179Z,68.07
2018-02-06T09:36:00.843Z,68.07
2018-02-06T09:38:28.499Z,68.12
2018-02-06T09:40:56.148Z,68.02
2018-02-06T09:43:23.730Z,67.73
2018-02-06T09:45:51.305Z,67.34
2018-02-06T09:48:19.124Z,67.67
2018-02-06T09:50:46.738Z,66.86
2018-02-06T09:53:14.355Z,66.67
2018-02-06T09:55:42.010Z,68.07
2018-02-06T09:58:09.622Z,67.40
2018-02-06T10:00:37.620Z,66.91
2018-02-06T10:03:05.361Z,67.70
2018-02-06T10:05:32.948Z,66.57
2018-02-06T10:08:00.540Z,66.84
2018-02-06T10:10:28.108Z,66.99
2018-02-06T10:12:55.675Z,66.26
2018-02-06T10:15:23.305Z,65.63
2018-02-06T10:17:50.881Z,66.19
2018-02-06T10:20:18.479Z,64.31
2018-02-06T10:22:46.079Z,64.82
2018-02-06T10:25:13.668Z,63.87
2018-02-06T10:27:41.325Z,63.63
2018-02-06T10:30:08.913Z,63.60
2018-02-06T10:32:36.483Z,61.83
2018-02-06T10:35:04.072Z,62.14
2018-02-06T10:37:31.637Z,62.14
2018-02-06T10:39:59.197Z,60.96
2018-02-06T10:42:26.758Z,61.19
2018-02-06T10:44:54.340Z,60.35
2018-02-06T10:47:21.920Z,60.38
2018-02-06T10:49:49.497Z,61.33
2018-02-06T10:52:17.078Z,60.95
2018-02-06T10:54:44.722Z,60.70
2018-02-06T10:57:12.502Z,60.68
2018-02-06T10:59:40.094Z,60.40
2018-02-06T11:02:07.859Z,60.02
2018-02-06T11:04:36.073Z,60.88
2018-02-06T11:07:05.366Z,60.90
2018-02-06T11:09:32.965Z,61.51
2018-02-06T11:12:00.557Z,59.51
2018-02-06T11:14:28.130Z,59.36
2018-02-06T11:16:58.610Z,58.57
2018-02-06T11:19:26.241Z,57.96
2018-02-06T11:21:54.622Z,57.78
2018-02-06T11:24:22.238Z,58.02
2018-02-06T11:26:49.800Z,57.53
2018-02-06T11:29:17.362Z,57.35
2018-02-06T11:31:44.928Z,56.68
2018-02-06T11:34:12.511Z,56.93
2018-02-06T11:36:40.117Z,55.46
2018-02-06T11:39:07.705Z,56.33
2018-02-06T11:41:35.310Z,56.22
2018-02-06T11:44:02.861Z,57.10
2018-02-06T11:46:30.454Z,54.82
2018-02-06T11:48:58.025Z,57.39
2018-02-06T11:51:25.582Z,56.38
2018-02-06T11:53:53.153Z,54.92
2018-02-06T11:56:20.737Z,55.23
2018-02-06T11:58:48.302Z,55.76
2018-02-06T12:01:15.962Z,54.20
2018-02-06T12:03:43.538Z,55.39
2018-02-06T12:06:11.244Z,56.04
2018-02-06T12:08:38.813Z,53.75
2018-02-06T12:11:07.291Z,53.67
2018-02-06T12:13:34.830Z,53.94
2018-02-06T12:16:02.396Z,53.61
2018-02-06T12:18:35.197Z,52.94
2018-02-06T12:21:02.883Z,53.06
2018-02-06T12:23:31.354Z,49.29
2018-02-06T12:25:58.933Z,47.42
2018-02-06T12:28:26.538Z,46.69
2018-02-06T12:30:54.103Z,45.53
2018-02-06T12:33:21.716Z,44.04
2018-02-06T12:35:49.402Z,44.34
2018-02-06T12:38:16.997Z,43.15
2018-02-06T12:40:44.570Z,43.94
2018-02-06T12:43:12.664Z,44.46
2018-02-06T12:45:40.341Z,42.80
2018-02-06T12:48:07.926Z,43.84
2018-02-06T12:50:35.490Z,43.89
2018-02-06T12:53:03.141Z,43.74
2018-02-06T12:55:31.194Z,44.06
2018-02-06T12:57:58.803Z,46.11
2018-02-06T13:00:26.690Z,46.38
2018-02-06T13:02:54.420Z,46.65
2018-02-06T13:05:22.429Z,47.27
2018-02-06T13:07:51.010Z,47.60
2018-02-06T13:10:19.071Z,47.59
2018-02-06T13:12:46.658Z,46.33
2018-02-06T13:15:14.231Z,45.70
2018-02-06T13:17:41.875Z,46.79
2018-02-06T13:20:09.451Z,48.16
2018-02-06T13:22:37.022Z,48.44
2018-02-06T13:25:04.630Z,48.28
2018-02-06T13:27:32.199Z,47.74
2018-02-06T13:29:59.770Z,47.48
2018-02-06T13:32:27.400Z,47.55
2018-02-06T13:34:54.972Z,46.91
2018-02-06T13:37:22.632Z,47.68
2018-02-06T13:39:50.202Z,46.01
2018-02-06T13:42:17.794Z,45.10
2018-02-06T13:44:45.378Z,43.83
2018-02-06T13:47:13.154Z,44.62
2018-02-06T13:49:40.727Z,44.07
2018-02-06T13:52:08.369Z,45.41
2018-02-06T13:54:35.939Z,45.38
2018-02-06T13:57:03.556Z,45.63
2018-02-06T13:59:31.183Z,46.84
2018-02-06T14:01:58.786Z,47.89
2018-02-06T14:04:26.383Z,47.50
2018-02-06T14:06:53.972Z,47.85
2018-02-06T14:09:21.706Z,48.99
2018-02-06T14:11:49.309Z,49.69
2018-02-06T14:14:16.891Z,50.77
2018-02-06T14:16:44.436Z,50.85
2018-02-06T14:19:12.172Z,50.86
2018-02-06T14:21:39.745Z,51.49
2018-02-06T14:24:07.309Z,52.13
2018-02-06T14:26:34.890Z,52.73
2018-02-06T14:29:02.484Z,53.94
2018-02-06T14:31:30.041Z,55.98
2018-02-06T14:33:57.647Z,53.50
2018-02-06T14:36:25.212Z,51.75
2018-02-06T14:38:52.757Z,51.82
2018-02-06T14:41:20.583Z,51.54
2018-02-06T14:43:48.152Z,52.49
2018-02-06T14:46:15.841Z,53.91
2018-02-06T14:48:43.440Z,53.72
2018-02-06T14:51:16.962Z,54.46
2018-02-06T14:53:44.558Z,55.57
2018-02-06T14:56:12.220Z,56.70
2018-02-06T14:58:39.775Z,56.96
2018-02-06T15:01:07.390Z,59.17
2018-02-06T15:03:34.929Z,59.84
2018-02-06T15:06:05.408Z,60.51
2018-02-06T15:08:33.155Z,61.38
2018-02-06T15:11:00.796Z,63.49
2018-02-06T15:13:28.504Z,64.32
2018-02-06T15:15:56.144Z,66.22
2018-02-06T15:18:23.720Z,66.54
2018-02-06T15:20:51.545Z,67.32
2018-02-06T15:23:19.144Z,68.15
2018-02-06T15:25:46.712Z,68.86
2018-02-06T15:28:14.292Z,69.22
2018-02-06T15:30:41.876Z,70.10
2018-02-06T15:33:09.518Z,70.43
2018-02-06T15:35:37.199Z,71.00
2018-02-06T15:38:08.297Z,72.49
2018-02-06T15:40:46.981Z,73.07
2018-02-06T15:43:16.284Z,73.40
2018-02-06T15:45:44.074Z,73.64
2018-02-06T15:48:11.888Z,74.12
2018-02-06T15:50:40.110Z,74.51
2018-02-06T15:53:08.747Z,75.04
2018-02-06T15:55:37.076Z,75.72
2018-02-06T15:58:06.019Z,75.87
2018-02-06T16:00:43.678Z,76.14
2018-02-06T16:03:11.741Z,76.31
2018-02-06T16:05:39.325Z,76.69
2018-02-06T16:08:06.921Z,76.91
2018-02-06T16:10:34.481Z,76.90
2018-02-06T16:13:02.040Z,77.00
2018-02-06T16:15:29.656Z,76.98
2018-02-06T16:17:57.219Z,76.98
2018-02-06T16:20:24.818Z,76.94
2018-02-06T16:22:52.391Z,77.15
2018-02-06T16:25:19.947Z,77.46
2018-02-06T16:27:47.528Z,77.50
2018-02-06T16:30:15.104Z,77.56
2018-02-06T16:32:42.658Z,77.61
2018-02-06T16:35:11.838Z,77.91
2018-02-06T16:37:39.460Z,77.68
2018-02-06T16:40:07.042Z,77.89
2018-02-06T16:42:34.670Z,78.06
2018-02-06T16:45:02.263Z,78.43
2018-02-06T16:47:30.971Z,78.39
2018-02-06T16:49:58.557Z,78.60
2018-02-06T16:52:26.345Z,78.71
2018-02-06T16:54:53.966Z,78.81
2018-02-06T16:57:21.751Z,78.67
2018-02-06T16:59:49.325Z,79.41
2018-02-06T17:02:28.653Z,79.42
2018-02-06T17:04:56.254Z,79.56
2018-02-06T17:07:24.943Z,79.55
2018-02-06T17:09:52.616Z,79.56
2018-02-06T17:12:21.021Z,79.48
2018-02-06T17:14:48.599Z,79.38
2018-02-06T17:17:17.248Z,79.28
2018-02-06T17:19:44.836Z,79.13
2018-02-06T17:22:12.423Z,79.12
2018-02-06T17:24:43.756Z,79.07
2018-02-06T17:27:11.644Z,79.46
2018-02-06T17:29:39.232Z,79.38
2018-02-06T17:32:06.849Z,79.96
2018-02-06T17:34:34.396Z,80.33
2018-02-06T17:37:02.023Z,80.48
2018-02-06T17:39:29.655Z,80.37
2018-02-06T17:41:57.250Z,80.58
2018-02-06T17:44:25.445Z,80.55
2018-02-06T17:46:53.050Z,80.24
2018-02-06T17:49:20.650Z,80.00
2018-02-06T17:51:48.242Z,80.38
2018-02-06T17:54:15.884Z,80.65
2018-02-06T17:56:43.485Z,80.37
2018-02-06T17:59:11.094Z,80.41
2018-02-06T18:01:38.768Z,80.55
2018-02-06T18:04:06.339Z,80.04
2018-02-06T18:06:34.174Z,79.96
2018-02-06T18:09:01.891Z,80.08
2018-02-06T18:11:29.571Z,80.33
2018-02-06T18:13:57.207Z,80.49
2018-02-06T18:16:24.869Z,80.62
2018-02-06T18:18:52.460Z,80.63
2018-02-06T18:21:20.484Z,80.46
2018-02-06T18:23:48.098Z,80.34
2018-02-06T18:26:15.700Z,80.23
2018-02-06T18:28:43.448Z,80.49
2018-02-06T18:31:12.138Z,80.88
2018-02-06T18:33:39.797Z,80.38
2018-02-06T18:36:07.433Z,80.16
2018-02-06T18:38:34.994Z,79.92
2018-02-06T18:41:02.621Z,80.42
2018-02-06T18:43:31.622Z,80.50
2018-02-06T18:45:59.199Z,80.60
2018-02-06T18:48:26.830Z,80.76
2018-02-06T18:50:54.668Z,81.20
2018-02-06T18:53:22.349Z,81.26
2018-02-06T18:55:50.181Z,80.98
2018-02-06T18:58:17.831Z,81.40
2018-02-06T19:00:45.449Z,81.63
2018-02-06T19:03:13.118Z,81.63
2018-02-06T19:05:40.817Z,81.51
2018-02-06T19:08:08.475Z,81.47
2018-02-06T19:10:36.066Z,81.41
2018-02-06T19:13:03.681Z,81.16
2018-02-06T19:15:31.303Z,80.85
2018-02-06T19:17:58.942Z,81.22
2018-02-06T19:20:26.544Z,81.97
2018-02-06T19:22:55.413Z,81.98
2018-02-06T19:25:23.024Z,82.17
2018-02-06T19:27:52.658Z,82.56
2018-02-06T19:30:20.498Z,82.68
2018-02-06T19:32:48.075Z,82.81
2018-02-06T19:35:16.234Z,82.99
2018-02-06T19:37:43.820Z,82.76
2018-02-06T19:40:11.422Z,82.74
2018-02-06T19:42:39.858Z,82.79
2018-02-06T19:45:08.495Z,82.85
2018-02-06T19:47:36.060Z,82.92
2018-02-06T19:50:04.762Z,82.74
2018-02-06T19:52:33.040Z,82.34
2018-02-06T19:55:00.637Z,82.63
2018-02-06T19:57:28.279Z,82.63
2018-02-06T19:59:58.883Z,82.43
2018-02-06T20:02:26.591Z,81.83
2018-02-06T20:04:54.223Z,81.52
2018-02-06T20:07:21.872Z,81.66
2018-02-06T20:09:49.481Z,81.68
2018-02-06T20:12:17.302Z,81.94
2018-02-06T20:14:44.938Z,81.73
2018-02-06T20:17:12.549Z,81.71
2018-02-06T20:19:40.205Z,81.64
2018-02-06T20:22:07.780Z,81.87
2018-02-06T20:24:35.574Z,81.90
2018-02-06T20:27:03.282Z,81.96
2018-02-06T20:32:21.359Z,82.00
2018-02-06T20:34:48.930Z,81.98
2018-02-06T20:37:16.537Z,82.02
2018-02-06T20:39:44.123Z,82.02
2018-02-06T20:42:11.675Z,81.84
2018-02-06T20:44:41.234Z,81.42
2018-02-06T20:47:09.316Z,80.97
2018-02-06T20:49:36.894Z,81.04
2018-02-06T20:52:04.574Z,81.11
2018-02-06T20:54:32.196Z,81.32
2018-02-06T20:56:59.796Z,81.38
2018-02-06T20:59:27.382Z,81.53
2018-02-06T21:01:55.064Z,81.47
2018-02-06T21:04:22.778Z,81.38
2018-02-06T21:06:50.328Z,81.48
2018-02-06T21:09:18.291Z,81.39
2018-02-06T21:11:47.370Z,81.67
2018-02-06T21:14:15.034Z,81.52
2018-02-06T21:16:42.674Z,81.98
2018-02-06T21:19:10.739Z,81.76
2018-02-06T21:21:38.624Z,81.62
2018-02-06T21:24:06.168Z,81.83
2018-02-06T21:26:33.766Z,81.74
2018-02-06T21:29:01.328Z,81.68
2018-02-06T21:31:28.952Z,81.69
2018-02-06T21:33:56.565Z,81.51
2018-02-06T21:36:24.158Z,81.61
2018-02-06T21:38:51.787Z,81.50
2018-02-06T21:41:19.372Z,81.50
2018-02-06T21:43:46.945Z,81.27
2018-02-06T21:46:14.748Z,81.19
2018-02-06T21:48:42.292Z,81.43
2018-02-06T21:51:10.499Z,81.16
2018-02-06T21:53:38.309Z,81.29
2018-02-06T21:56:05.893Z,81.65
2018-02-06T21:58:33.477Z,81.96
2018-02-06T22:01:01.090Z,81.68
2018-02-06T22:03:28.658Z,81.80
2018-02-06T22:05:56.224Z,81.63
2018-02-06T22:08:23.920Z,81.69
2018-02-06T22:10:51.459Z,81.81
2018-02-06T22:13:19.058Z,81.76
2018-02-06T22:15:46.789Z,81.84
2018-02-06T22:18:14.411Z,82.08
2018-02-06T22:20:42.204Z,82.27
2018-02-06T22:23:10.837Z,82.26
2018-02-06T22:25:38.441Z,82.45
2018-02-06T22:28:06.068Z,82.64
2018-02-06T22:30:34.005Z,82.72
2018-02-06T22:33:01.609Z,83.23
2018-02-06T22:35:29.239Z,83.33
2018-02-06T22:37:56.805Z,83.17
2018-02-06T22:40:24.467Z,83.20
2018-02-06T22:42:52.083Z,83.54
2018-02-06T22:45:19.656Z,83.82
2018-02-06T22:47:47.316Z,83.50
2018-02-06T22:50:14.928Z,83.88
2018-02-06T22:52:42.522Z,84.19
2018-02-06T22:55:10.991Z,84.29
2018-02-06T22:57:38.877Z,85.18
2018-02-06T23:00:07.042Z,85.84
2018-02-06T23:02:35.021Z,85.78
2018-02-06T23:05:02.622Z,85.48
2018-02-06T23:07:30.364Z,85.14
2018-02-06T23:09:57.966Z,85.29
2018-02-06T23:12:25.539Z,85.35
2018-02-06T23:14:54.042Z,86.15
2018-02-06T23:17:21.640Z,85.75
2018-02-06T23:19:49.559Z,86.44
2018-02-06T23:22:17.163Z,86.43
2018-02-06T23:24:44.762Z,86.52
2018-02-06T23:27:12.774Z,86.66
2018-02-06T23:29:40.531Z,86.26
2018-02-06T23:32:08.167Z,86.59
2018-02-06T23:34:35.773Z,86.62
2018-02-06T23:37:06.025Z,86.84
2018-02-06T23:39:33.742Z,87.29
2018-02-06T23:42:01.366Z,87.32
2018-02-06T23:44:29.005Z,87.53
2018-02-06T23:46:57.526Z,87.49
2018-02-06T23:49:25.596Z,87.80
2018-02-06T23:51:53.310Z,87.75
2018-02-06T23:54:20.925Z,87.54
2018-02-06T23:56:48.545Z,87.80
2018-02-06T23:59:16.158Z,88.57
